Time;durP1;ratioP1;P1;durP2;ratioP2;P2;SDS_P1;SDS_P2;PMS_P1;PMS_P2;Temp;Humidity;BMP_temperature;BMP_pressure;BME280_temperature;BME280_humidity;BME280_pressure;Samples;Min_cycle;Max_cycle;Signal;HPM_P1;HPM_P2
2023/03/07 00:02:10;;;;;;;11.27;7.87;;;0.00;99.90;;;;;;5178681;28;20683;-52
2023/03/07 00:04:45;;;;;;;16.10;9.93;;;0.00;99.90;;;;;;5178017;28;20208;-51
2023/03/07 00:07:15;;;;;;;19.43;9.20;;;-0.10;99.90;;;;;;5196151;28;20615;-52
2023/03/07 00:09:46;;;;;;;14.63;9.50;;;-0.10;99.90;;;;;;5179306;28;20485;-50
2023/03/07 00:12:19;;;;;;;15.40;9.67;;;0.00;99.90;;;;;;5181151;28;20265;-50
2023/03/07 00:14:50;;;;;;;19.43;8.20;;;0.30;99.90;;;;;;5179142;28;20527;-51
2023/03/07 00:17:20;;;;;;;13.53;8.87;;;0.20;99.90;;;;;;5183387;28;20524;-53
2023/03/07 00:19:51;;;;;;;14.00;8.20;;;0.30;99.90;;;;;;5184684;28;20196;-51
2023/03/07 00:22:22;;;;;;;16.17;8.07;;;0.30;99.90;;;;;;5185832;28;20208;-49
2023/03/07 00:24:52;;;;;;;14.13;9.10;;;0.20;99.90;;;;;;5185302;28;20784;-50
2023/03/07 00:27:23;;;;;;;16.90;8.93;;;0.20;99.90;;;;;;5183290;28;20196;-51
2023/03/07 00:29:54;;;;;;;14.40;8.07;;;0.10;99.90;;;;;;5183376;28;20711;-50
2023/03/07 00:32:25;;;;;;;10.53;8.00;;;0.30;99.90;;;;;;5184691;28;20200;-52
2023/03/07 00:34:57;;;;;;;12.60;8.73;;;0.20;99.90;;;;;;5184216;28;20204;-51
2023/03/07 00:37:29;;;;;;;11.33;8.37;;;0.10;99.90;;;;;;5183070;28;20460;-51
2023/03/07 00:40:00;;;;;;;17.80;9.80;;;0.20;99.90;;;;;;5184295;28;20463;-54
2023/03/07 00:42:30;;;;;;;14.57;9.77;;;0.00;99.90;;;;;;5188827;28;20421;-51
2023/03/07 00:45:01;;;;;;;14.53;9.60;;;0.10;99.90;;;;;;5187973;28;20218;-52
2023/03/07 00:47:32;;;;;;;15.00;11.40;;;0.10;99.90;;;;;;5182545;28;20238;-50
2023/03/07 00:50:03;;;;;;;17.43;10.10;;;0.00;99.90;;;;;;5184215;28;20200;-51
2023/03/07 00:52:33;;;;;;;19.37;11.00;;;0.10;99.90;;;;;;5181501;28;20177;-51
2023/03/07 00:55:05;;;;;;;17.20;12.23;;;0.20;99.90;;;;;;5182585;28;20427;-52
2023/03/07 00:57:35;;;;;;;18.20;10.80;;;0.00;99.90;;;;;;5184932;28;20576;-51
2023/03/07 01:00:07;;;;;;;17.83;10.60;;;-0.10;99.90;;;;;;5181572;28;20431;-53
2023/03/07 01:02:38;;;;;;;17.40;11.27;;;-0.10;99.90;;;;;;5182409;28;20541;-51
2023/03/07 01:05:09;;;;;;;17.33;10.40;;;0.00;99.90;;;;;;5183809;28;20467;-50
2023/03/07 01:07:40;;;;;;;17.40;10.80;;;0.00;99.90;;;;;;5184273;28;20231;-51
2023/03/07 01:10:11;;;;;;;23.20;13.43;;;0.00;99.90;;;;;;5182975;28;20467;-49
2023/03/07 01:12:42;;;;;;;24.53;12.37;;;-0.20;99.90;;;;;;5184645;28;20268;-53
2023/03/07 01:15:13;;;;;;;19.87;11.53;;;-0.30;99.90;;;;;;5179786;28;20578;-51
2023/03/07 01:17:44;;;;;;;18.30;10.10;;;0.00;99.90;;;;;;5183486;28;20497;-49
2023/03/07 01:20:14;;;;;;;16.77;11.50;;;-0.10;99.90;;;;;;5186156;28;20180;-51
2023/03/07 01:22:45;;;;;;;16.27;11.37;;;-0.10;99.90;;;;;;5183292;28;20617;-51
2023/03/07 01:25:16;;;;;;;19.30;12.07;;;-0.10;99.90;;;;;;5183355;28;20575;-52
2023/03/07 01:27:47;;;;;;;23.10;12.50;;;-0.10;99.90;;;;;;5185551;28;20198;-52
2023/03/07 01:30:17;;;;;;;22.67;13.37;;;-0.10;99.90;;;;;;5184166;28;20295;-51
2023/03/07 01:32:57;;;;;;;16.43;11.60;;;-0.10;99.90;;;;;;5185039;28;20648;-53
2023/03/07 01:35:28;;;;;;;22.20;12.00;;;0.00;99.90;;;;;;5185179;28;20188;-52
2023/03/07 01:37:59;;;;;;;22.87;13.03;;;-0.10;99.90;;;;;;5185040;28;20477;-53
2023/03/07 01:40:30;;;;;;;21.30;11.97;;;-0.10;99.90;;;;;;5184148;28;22132;-52
2023/03/07 01:43:27;;;;;;;22.03;14.23;;;-0.20;99.90;;;;;;5186610;28;20610;-52
2023/03/07 01:46:15;;;;;;;23.80;14.03;;;-0.20;99.90;;;;;;5182827;28;20435;-50
2023/03/07 01:48:54;;;;;;;27.57;15.87;;;-0.30;99.90;;;;;;5183236;28;20522;-51
2023/03/07 01:51:26;;;;;;;23.77;14.60;;;-0.40;99.90;;;;;;5181269;28;20446;-52
2023/03/07 01:53:59;;;;;;;26.40;16.40;;;-0.40;99.90;;;;;;5167839;28;20441;-52
2023/03/07 01:56:30;;;;;;;38.00;17.13;;;-0.40;99.90;;;;;;5180457;28;20455;-51
2023/03/07 01:59:01;;;;;;;28.90;15.47;;;-0.30;99.90;;;;;;5181234;28;20446;-52
2023/03/07 02:01:33;;;;;;;25.33;15.13;;;-0.20;99.90;;;;;;5179650;28;20272;-51
2023/03/07 02:04:29;;;;;;;27.90;15.00;;;-0.30;99.90;;;;;;5182939;28;20487;-52
2023/03/07 02:07:02;;;;;;;41.73;19.07;;;-0.10;99.90;;;;;;5182936;28;20597;-51
2023/03/07 02:09:34;;;;;;;31.47;16.00;;;0.00;99.90;;;;;;5184609;28;20441;-51
2023/03/07 02:12:05;;;;;;;36.63;18.37;;;-0.10;99.90;;;;;;5182659;28;20943;-52
2023/03/07 02:14:36;;;;;;;37.23;18.30;;;-0.20;99.90;;;;;;5177399;28;20505;-53
2023/03/07 02:17:06;;;;;;;36.80;17.70;;;0.00;99.90;;;;;;5178164;28;20554;-53
2023/03/07 02:20:06;;;;;;;38.03;18.90;;;0.00;99.90;;;;;;5178831;28;20835;-52
2023/03/07 02:22:37;;;;;;;36.10;19.00;;;0.10;99.90;;;;;;5181254;28;20196;-52
2023/03/07 02:25:18;;;;;;;35.27;19.03;;;0.00;99.90;;;;;;5180643;28;20458;-51
2023/03/07 02:27:51;;;;;;;42.60;21.33;;;-0.10;99.90;;;;;;5181729;28;20200;-51
2023/03/07 02:30:22;;;;;;;47.43;20.90;;;0.10;99.90;;;;;;5179278;28;20786;-51
2023/03/07 02:32:53;;;;;;;52.83;21.43;;;0.20;99.90;;;;;;5181921;28;21051;-51
2023/03/07 02:35:24;;;;;;;56.40;23.40;;;0.10;99.90;;;;;;5182684;28;20178;-51
2023/03/07 02:38:00;;;;;;;44.03;21.80;;;0.30;99.90;;;;;;5181367;28;20757;-52
2023/03/07 02:40:31;;;;;;;45.50;22.60;;;0.30;99.90;;;;;;5182896;28;20485;-52
2023/03/07 02:43:08;;;;;;;41.27;21.70;;;0.30;99.90;;;;;;5180352;28;20939;-51
2023/03/07 02:45:38;;;;;;;50.53;22.33;;;0.30;99.90;;;;;;5180606;28;20206;-52
2023/03/07 02:48:09;;;;;;;38.93;20.63;;;0.50;99.90;;;;;;5183525;28;20456;-51
2023/03/07 02:50:40;;;;;;;46.23;22.63;;;0.50;99.90;;;;;;5180326;28;20180;-52
2023/03/07 02:53:11;;;;;;;44.97;22.00;;;0.50;99.90;;;;;;5181566;28;20644;-51
2023/03/07 02:55:41;;;;;;;43.73;23.10;;;0.50;99.90;;;;;;5183998;28;20234;-51
2023/03/07 02:58:12;;;;;;;51.00;23.17;;;0.50;99.90;;;;;;5182962;28;20198;-50
2023/03/07 03:00:43;;;;;;;45.87;23.73;;;0.50;99.90;;;;;;5184281;28;20183;-52
2023/03/07 03:03:13;;;;;;;44.30;23.70;;;0.50;99.90;;;;;;5183933;28;20205;-52
2023/03/07 03:05:44;;;;;;;46.40;21.93;;;0.60;99.90;;;;;;5183334;28;20205;-52
2023/03/07 03:08:15;;;;;;;43.90;22.27;;;0.70;99.90;;;;;;5184139;28;20814;-52
2023/03/07 03:10:51;;;;;;;38.70;22.73;;;0.70;99.90;;;;;;5184466;28;21037;-52
2023/03/07 03:13:22;;;;;;;41.37;22.03;;;0.70;99.90;;;;;;5185417;28;20182;-52
2023/03/07 03:15:56;;;;;;;47.00;25.30;;;0.80;99.90;;;;;;5183710;28;21004;-52
2023/03/07 03:18:27;;;;;;;54.97;24.23;;;0.70;99.90;;;;;;5180920;28;20349;-52
2023/03/07 03:20:58;;;;;;;49.97;23.87;;;0.70;99.90;;;;;;5184165;28;20519;-52
2023/03/07 03:23:28;;;;;;;49.83;24.93;;;0.60;99.90;;;;;;5183980;28;20201;-52
2023/03/07 03:26:03;;;;;;;53.13;25.60;;;0.60;99.90;;;;;;5182159;28;20177;-51
2023/03/07 03:28:35;;;;;;;46.60;22.33;;;0.60;99.90;;;;;;5182334;28;20182;-52
2023/03/07 03:31:13;;;;;;;49.93;22.23;;;0.80;99.90;;;;;;5180510;28;20798;-52
2023/03/07 03:33:44;;;;;;;49.10;23.23;;;0.70;99.90;;;;;;5166856;28;20530;-52
2023/03/07 03:38:55;;;;;;;47.80;23.07;;;0.70;99.90;;;;;;5145783;28;20233;-48
2023/03/07 03:41:26;;;;;;;45.43;23.07;;;0.70;99.90;;;;;;5148708;28;20440;-46
2023/03/07 03:43:57;;;;;;;38.70;21.20;;;0.80;99.90;;;;;;5144318;28;20811;-48
2023/03/07 03:46:27;;;;;;;44.53;23.10;;;1.00;99.90;;;;;;5143495;28;20187;-47
2023/03/07 03:48:58;;;;;;;47.50;24.40;;;0.80;99.90;;;;;;5144752;28;20191;-50
2023/03/07 03:51:29;;;;;;;47.90;21.70;;;0.80;99.90;;;;;;5145732;28;20181;-46
2023/03/07 03:54:00;;;;;;;43.87;22.30;;;0.80;99.90;;;;;;5143640;28;20282;-46
2023/03/07 03:56:31;;;;;;;41.37;20.70;;;0.70;99.90;;;;;;5143423;28;20612;-46
2023/03/07 03:59:01;;;;;;;48.37;22.37;;;0.70;99.90;;;;;;5141513;28;20179;-49
2023/03/07 04:01:32;;;;;;;43.10;21.90;;;0.70;99.90;;;;;;5142104;28;20729;-53
2023/03/07 04:04:03;;;;;;;38.17;20.87;;;0.90;99.90;;;;;;5139689;28;20212;-46
2023/03/07 04:06:34;;;;;;;36.73;21.30;;;1.00;99.90;;;;;;5143988;28;20441;-47
2023/03/07 04:09:05;;;;;;;37.53;19.80;;;1.00;99.90;;;;;;5141077;28;20800;-46
2023/03/07 04:11:36;;;;;;;43.20;21.53;;;1.00;99.90;;;;;;5143931;28;20189;-46
2023/03/07 04:14:06;;;;;;;44.77;19.77;;;1.00;99.90;;;;;;5158643;28;20537;-49
2023/03/07 04:16:37;;;;;;;43.97;21.80;;;1.00;99.90;;;;;;5148014;28;20749;-47
2023/03/07 04:19:11;;;;;;;39.00;20.17;;;1.20;99.90;;;;;;5148644;28;20213;-46
2023/03/07 04:21:42;;;;;;;38.27;19.00;;;1.20;99.90;;;;;;5149371;28;20185;-46
2023/03/07 04:24:13;;;;;;;39.73;20.77;;;1.10;99.90;;;;;;5149341;28;20831;-51
2023/03/07 04:26:43;;;;;;;45.03;20.67;;;1.00;99.90;;;;;;5147060;28;20671;-46
2023/03/07 04:29:14;;;;;;;36.97;20.37;;;1.10;99.90;;;;;;5144961;28;20215;-46
2023/03/07 04:31:45;;;;;;;41.27;19.23;;;1.20;99.90;;;;;;5147510;28;20186;-46
2023/03/07 04:34:15;;;;;;;36.87;19.73;;;1.30;99.90;;;;;;5147034;28;20467;-46
2023/03/07 04:36:46;;;;;;;36.50;19.60;;;1.40;99.90;;;;;;5147111;28;20897;-45
2023/03/07 04:39:17;;;;;;;34.07;19.17;;;1.30;99.90;;;;;;5161502;28;20235;-53
2023/03/07 04:41:47;;;;;;;38.63;19.83;;;1.30;99.90;;;;;;5147317;28;20267;-47
2023/03/07 04:44:19;;;;;;;36.17;19.47;;;1.40;99.90;;;;;;5146990;28;20213;-47
2023/03/07 04:46:50;;;;;;;36.23;19.50;;;1.50;99.90;;;;;;5147272;28;20293;-47
2023/03/07 04:49:21;;;;;;;34.53;19.20;;;1.40;99.90;;;;;;5161530;28;20983;-48
2023/03/07 04:51:51;;;;;;;36.90;19.07;;;1.50;99.90;;;;;;5145640;28;20244;-47
2023/03/07 04:54:22;;;;;;;42.37;20.97;;;1.40;99.90;;;;;;5160953;28;20199;-47
2023/03/07 04:56:53;;;;;;;36.17;19.00;;;1.40;99.90;;;;;;5146120;28;20317;-46
2023/03/07 04:59:23;;;;;;;42.57;19.67;;;1.40;99.90;;;;;;5159529;28;20193;-46
2023/03/07 05:01:54;;;;;;;38.93;19.03;;;1.40;99.90;;;;;;5147557;28;20194;-53
2023/03/07 05:04:24;;;;;;;37.87;18.90;;;1.30;99.90;;;;;;5161164;28;20197;-46
2023/03/07 05:06:55;;;;;;;44.13;21.90;;;1.20;99.90;;;;;;5147716;28;20256;-47
2023/03/07 05:09:26;;;;;;;38.53;20.70;;;1.30;99.90;;;;;;5164458;28;20638;-46
2023/03/07 05:11:56;;;;;;;40.37;19.73;;;1.30;99.90;;;;;;5147166;28;20190;-47
2023/03/07 05:14:27;;;;;;;42.60;20.23;;;1.20;99.90;;;;;;5161856;28;20200;-49
2023/03/07 05:16:57;;;;;;;43.37;20.80;;;1.10;99.90;;;;;;5142525;28;20229;-50
2023/03/07 05:19:29;;;;;;;38.40;21.10;;;1.10;99.90;;;;;;5143854;28;20734;-47
2023/03/07 05:22:00;;;;;;;39.30;19.53;;;1.10;99.90;;;;;;5143140;28;20277;-49
2023/03/07 05:24:30;;;;;;;50.90;24.47;;;1.10;99.90;;;;;;5144881;28;20583;-48
2023/03/07 05:27:01;;;;;;;43.30;20.43;;;1.10;99.90;;;;;;5143954;28;20304;-48
2023/03/07 05:29:31;;;;;;;36.10;19.40;;;1.10;99.90;;;;;;5142302;28;20581;-45
2023/03/07 05:32:02;;;;;;;37.00;20.40;;;1.10;99.90;;;;;;5140830;28;20301;-49
2023/03/07 05:34:33;;;;;;;37.30;19.53;;;1.10;99.90;;;;;;5146794;28;20551;-45
2023/03/07 05:37:04;;;;;;;36.83;20.57;;;1.10;99.90;;;;;;5156969;28;20231;-46
2023/03/07 05:39:34;;;;;;;33.83;19.50;;;1.10;99.90;;;;;;5143298;28;20216;-47
2023/03/07 05:42:05;;;;;;;45.30;20.33;;;1.10;99.90;;;;;;5154883;28;20272;-46
2023/03/07 05:44:35;;;;;;;32.43;19.50;;;1.00;99.90;;;;;;5148576;28;20211;-45
2023/03/07 05:47:07;;;;;;;38.70;20.10;;;1.10;99.90;;;;;;5139140;28;20253;-44
2023/03/07 05:49:37;;;;;;;46.30;21.33;;;1.10;99.90;;;;;;5137851;28;20669;-46
2023/03/07 05:52:08;;;;;;;39.80;21.07;;;1.10;99.90;;;;;;5143163;28;20433;-45
2023/03/07 05:54:38;;;;;;;38.70;20.30;;;1.10;99.90;;;;;;5148468;28;20520;-47
2023/03/07 05:57:09;;;;;;;37.70;19.30;;;1.10;99.90;;;;;;5143595;28;20209;-48
2023/03/07 05:59:39;;;;;;;35.60;18.20;;;1.00;99.90;;;;;;5156937;28;20347;-44
2023/03/07 06:02:10;;;;;;;36.70;19.87;;;1.10;99.90;;;;;;5143884;28;20196;-46
2023/03/07 06:04:41;;;;;;;38.27;19.20;;;1.10;99.90;;;;;;5146277;28;20229;-46
2023/03/07 06:07:11;;;;;;;37.70;20.60;;;1.10;99.90;;;;;;5143368;28;20221;-45
2023/03/07 06:09:42;;;;;;;40.83;19.83;;;1.10;99.90;;;;;;5140821;28;20601;-46
2023/03/07 06:12:13;;;;;;;37.33;20.23;;;1.10;99.90;;;;;;5159724;28;20204;-47
2023/03/07 06:14:43;;;;;;;37.97;19.53;;;1.20;99.90;;;;;;5141979;28;20232;-48
2023/03/07 06:17:14;;;;;;;45.17;20.70;;;1.20;99.90;;;;;;5144498;28;20214;-47
2023/03/07 06:19:44;;;;;;;39.80;19.80;;;1.30;99.90;;;;;;5160677;28;20181;-45
2023/03/07 06:22:15;;;;;;;38.60;18.73;;;1.30;99.90;;;;;;5145207;28;20684;-44
2023/03/07 06:24:46;;;;;;;38.63;19.07;;;1.20;99.90;;;;;;5159776;28;20217;-46
2023/03/07 06:27:16;;;;;;;38.53;20.57;;;1.30;99.90;;;;;;5143900;28;20358;-46
2023/03/07 06:29:47;;;;;;;38.00;19.80;;;1.30;99.90;;;;;;5144912;28;20269;-47
2023/03/07 06:32:17;;;;;;;35.47;19.60;;;1.30;99.90;;;;;;5158674;28;20669;-47
2023/03/07 06:34:48;;;;;;;34.60;19.50;;;1.40;99.90;;;;;;5143615;28;20182;-46
2023/03/07 06:37:19;;;;;;;35.13;19.50;;;1.40;99.90;;;;;;5143482;28;20235;-47
2023/03/07 06:39:49;;;;;;;36.47;19.70;;;1.40;99.90;;;;;;5146998;28;20661;-46
2023/03/07 06:42:20;;;;;;;35.50;18.43;;;1.50;99.90;;;;;;5148014;28;20221;-46
2023/03/07 06:44:50;;;;;;;39.40;19.60;;;1.50;99.90;;;;;;5128892;28;20232;-45
2023/03/07 06:47:21;;;;;;;34.33;18.33;;;1.50;99.90;;;;;;5135523;28;20213;-51
2023/03/07 06:49:52;;;;;;;33.00;18.67;;;1.50;99.90;;;;;;5141915;28;20177;-46
2023/03/07 06:52:22;;;;;;;32.90;18.83;;;1.60;99.90;;;;;;5140743;28;20209;-46
2023/03/07 06:54:53;;;;;;;33.73;19.00;;;1.60;99.90;;;;;;5142171;28;20185;-48
2023/03/07 06:57:24;;;;;;;35.37;19.17;;;1.70;99.90;;;;;;5156732;28;20598;-46
2023/03/07 06:59:54;;;;;;;31.87;18.53;;;1.70;99.90;;;;;;5136236;28;20205;-47
2023/03/07 07:02:25;;;;;;;30.40;16.73;;;1.70;99.90;;;;;;5142433;28;20185;-46
2023/03/07 07:04:57;;;;;;;38.40;19.73;;;1.80;99.90;;;;;;5144402;28;20210;-47
2023/03/07 07:07:28;;;;;;;33.33;17.33;;;1.80;99.90;;;;;;5156972;28;20206;-48
2023/03/07 07:10:00;;;;;;;33.87;20.00;;;1.90;99.90;;;;;;5156302;28;20433;-46
2023/03/07 07:12:30;;;;;;;38.47;18.70;;;1.80;99.90;;;;;;5143033;28;20437;-45
2023/03/07 07:15:04;;;;;;;34.13;17.83;;;1.90;99.90;;;;;;5140854;28;20449;-46
2023/03/07 07:17:35;;;;;;;30.17;17.10;;;1.90;99.90;;;;;;5141677;28;20300;-47
2023/03/07 07:20:10;;;;;;;37.23;17.70;;;2.00;99.90;;;;;;5141786;28;20516;-50
2023/03/07 07:22:40;;;;;;;28.80;17.47;;;2.00;99.90;;;;;;5142169;28;20459;-46
2023/03/07 07:25:11;;;;;;;30.47;16.90;;;2.00;99.90;;;;;;5141794;28;20456;-46
2023/03/07 07:27:41;;;;;;;35.27;16.97;;;2.10;99.90;;;;;;5140240;28;20205;-47
2023/03/07 07:30:12;;;;;;;31.30;16.80;;;2.10;99.90;;;;;;5141634;28;20190;-46
2023/03/07 07:32:43;;;;;;;25.90;15.10;;;2.20;99.90;;;;;;5120859;28;24065;-50
2023/03/07 07:35:14;;;;;;;34.50;17.83;;;2.20;99.90;;;;;;5130872;28;20456;-49
2023/03/07 07:37:44;;;;;;;31.53;17.20;;;2.40;99.90;;;;;;5138241;28;20229;-47
2023/03/07 07:40:15;;;;;;;28.97;16.97;;;2.60;99.90;;;;;;5138912;28;20535;-46
2023/03/07 07:42:54;;;;;;;26.90;15.33;;;2.80;99.90;;;;;;5138287;28;20182;-46
2023/03/07 07:45:25;;;;;;;27.60;15.47;;;2.90;99.90;;;;;;5136548;28;20566;-47
2023/03/07 07:47:56;;;;;;;25.00;16.33;;;3.10;99.90;;;;;;5136035;28;20457;-47
2023/03/07 07:50:26;;;;;;;23.53;14.03;;;3.30;99.90;;;;;;5139409;28;20577;-47
2023/03/07 07:52:57;;;;;;;25.70;13.70;;;3.20;99.90;;;;;;5150330;28;20285;-46
2023/03/07 07:55:28;;;;;;;26.10;14.30;;;3.30;99.90;;;;;;5136894;28;20220;-49
2023/03/07 07:57:58;;;;;;;21.67;14.40;;;3.30;99.90;;;;;;5142385;28;20205;-48
2023/03/07 08:00:29;;;;;;;27.43;14.97;;;3.20;99.90;;;;;;5151162;28;20630;-47
2023/03/07 08:03:00;;;;;;;26.70;14.23;;;3.10;99.90;;;;;;5138358;28;20190;-50
2023/03/07 08:05:30;;;;;;;29.23;14.50;;;3.10;99.90;;;;;;5146196;28;20224;-46
2023/03/07 08:08:01;;;;;;;28.63;14.93;;;3.00;99.90;;;;;;5132653;28;20263;-47
2023/03/07 08:10:32;;;;;;;27.80;14.90;;;3.00;99.90;;;;;;5135621;28;20614;-52
2023/03/07 08:13:03;;;;;;;20.53;12.93;;;3.10;99.90;;;;;;5153565;28;20662;-52
2023/03/07 08:15:33;;;;;;;24.27;13.77;;;3.20;99.90;;;;;;5133232;28;20213;-46
2023/03/07 08:18:04;;;;;;;19.87;12.07;;;3.30;99.90;;;;;;5121727;28;20216;-46
2023/03/07 08:20:36;;;;;;;23.27;13.60;;;3.30;99.90;;;;;;5134982;28;20519;-48
2023/03/07 08:23:07;;;;;;;33.33;13.90;;;3.30;99.90;;;;;;5140717;28;20197;-46
2023/03/07 08:25:38;;;;;;;22.87;12.60;;;3.40;99.90;;;;;;5141717;28;20557;-47
2023/03/07 08:28:08;;;;;;;17.70;12.40;;;3.40;99.90;;;;;;5139797;28;20551;-48
2023/03/07 08:30:39;;;;;;;19.00;12.47;;;3.40;99.90;;;;;;5143542;28;20520;-48
2023/03/07 08:33:09;;;;;;;25.10;13.60;;;3.40;99.90;;;;;;5159189;28;20185;-48
2023/03/07 08:35:40;;;;;;;20.93;13.00;;;3.20;99.90;;;;;;5141928;28;20201;-46
2023/03/07 08:38:10;;;;;;;23.30;13.43;;;3.10;99.90;;;;;;5145297;28;20247;-48
2023/03/07 08:40:41;;;;;;;26.53;15.00;;;3.00;99.90;;;;;;5143369;28;20186;-49
2023/03/07 08:43:12;;;;;;;20.80;13.73;;;3.00;99.90;;;;;;5136618;28;20189;-48
2023/03/07 08:45:42;;;;;;;22.97;13.27;;;3.10;99.90;;;;;;5142792;28;20253;-46
2023/03/07 08:48:13;;;;;;;20.53;12.37;;;3.20;99.90;;;;;;5127081;28;20640;-46
2023/03/07 08:50:43;;;;;;;20.60;13.50;;;3.20;99.90;;;;;;5138216;28;20186;-47
2023/03/07 08:53:14;;;;;;;38.93;14.73;;;3.30;99.90;;;;;;5145077;28;20225;-47
2023/03/07 08:55:46;;;;;;;19.77;12.80;;;3.50;99.90;;;;;;5138136;28;20614;-48
2023/03/07 08:58:16;;;;;;;20.10;11.80;;;3.60;99.90;;;;;;5138827;28;20499;-48
2023/03/07 09:00:47;;;;;;;21.47;12.93;;;3.70;99.90;;;;;;5141714;28;20472;-47
2023/03/07 09:03:17;;;;;;;18.73;12.00;;;3.80;99.90;;;;;;5161462;28;20859;-47
2023/03/07 09:05:48;;;;;;;23.33;12.97;;;4.00;99.90;;;;;;5143996;28;20189;-50
2023/03/07 09:08:19;;;;;;;19.07;12.93;;;4.10;99.90;;;;;;5126451;28;21142;-52
2023/03/07 09:10:49;;;;;;;20.17;12.80;;;4.30;99.90;;;;;;5138946;28;20196;-47
2023/03/07 09:13:20;;;;;;;19.93;11.93;;;4.50;99.90;;;;;;5160821;28;20611;-47
2023/03/07 09:15:51;;;;;;;18.97;11.77;;;4.80;99.90;;;;;;5142500;28;20197;-47
2023/03/07 09:18:21;;;;;;;17.37;10.53;;;4.80;99.90;;;;;;5141822;28;20230;-47
2023/03/07 09:20:52;;;;;;;11.50;9.80;;;4.90;99.90;;;;;;5142390;28;20180;-48
2023/03/07 09:23:23;;;;;;;16.10;9.60;;;4.90;99.90;;;;;;5155394;28;20175;-50
2023/03/07 09:25:57;;;;;;;17.77;10.37;;;4.90;99.90;;;;;;5148416;28;20182;-50
2023/03/07 09:28:28;;;;;;;13.97;9.77;;;4.90;99.90;;;;;;5143069;28;20575;-49
2023/03/07 09:30:58;;;;;;;14.23;9.70;;;5.00;99.90;;;;;;5139974;28;20792;-50
2023/03/07 09:33:29;;;;;;;15.60;10.43;;;5.00;99.90;;;;;;5141982;28;20188;-48
2023/03/07 09:36:07;;;;;;;19.63;10.37;;;5.00;99.90;;;;;;5142446;28;20192;-48
2023/03/07 09:38:41;;;;;;;13.90;8.97;;;4.90;99.90;;;;;;5179769;23;20257;-53
2023/03/07 09:41:21;;;;;;;14.30;9.43;;;5.00;99.90;;;;;;5180587;28;20440;-55
2023/03/07 09:44:02;;;;;;;14.03;10.17;;;4.90;99.90;;;;;;5199524;28;20488;-55
2023/03/07 09:47:00;;;;;;;19.37;11.90;;;5.10;99.90;;;;;;5180290;28;20568;-54
2023/03/07 09:49:48;;;;;;;17.33;9.53;;;5.20;99.90;;;;;;5161865;28;20422;-53
2023/03/07 09:52:23;;;;;;;16.23;9.80;;;5.30;99.90;;;;;;5155978;28;20454;-53
2023/03/07 09:54:54;;;;;;;16.83;8.80;;;5.50;99.90;;;;;;5178819;28;20435;-53
2023/03/07 09:57:50;;;;;;;13.70;8.73;;;5.70;99.90;;;;;;5162348;28;20462;-54
2023/03/07 10:00:26;;;;;;;10.73;8.27;;;5.80;99.90;;;;;;5161051;28;20195;-54
2023/03/07 10:03:23;;;;;;;9.47;7.43;;;5.90;99.90;;;;;;5162308;28;20450;-53
2023/03/07 10:05:59;;;;;;;10.30;6.90;;;5.90;99.90;;;;;;5147539;28;20452;-54
2023/03/07 10:08:32;;;;;;;12.30;7.73;;;6.10;99.90;;;;;;5164319;28;20514;-55
2023/03/07 10:11:28;;;;;;;7.93;6.17;;;6.40;99.90;;;;;;5160915;28;20490;-54
2023/03/07 10:14:15;;;;;;;8.33;6.40;;;6.40;99.90;;;;;;5159422;28;20443;-55
2023/03/07 10:17:06;;;;;;;8.67;6.87;;;6.70;99.90;;;;;;5158647;28;20444;-54
2023/03/07 10:19:47;;;;;;;10.13;6.47;;;6.70;99.90;;;;;;5161393;28;20424;-55
2023/03/07 10:22:34;;;;;;;9.53;6.37;;;6.70;99.90;;;;;;5161351;28;20457;-54
2023/03/07 10:25:14;;;;;;;6.27;5.47;;;6.60;99.90;;;;;;5157938;28;20515;-54
2023/03/07 10:27:49;;;;;;;6.10;5.50;;;6.70;99.90;;;;;;5173721;28;20526;-53
2023/03/07 10:30:20;;;;;;;6.27;5.60;;;6.70;99.90;;;;;;5161112;28;20439;-54
2023/03/07 10:32:56;;;;;;;6.90;6.20;;;6.70;99.90;;;;;;5155373;28;20968;-54
2023/03/07 10:35:42;;;;;;;7.50;5.83;;;6.80;99.90;;;;;;5157768;28;20259;-53
2023/03/07 10:38:22;;;;;;;5.37;4.87;;;6.70;99.90;;;;;;5163052;28;20472;-54
2023/03/07 10:40:55;;;;;;;5.47;4.60;;;6.60;99.90;;;;;;5161283;28;20527;-54
2023/03/07 10:43:31;;;;;;;4.80;4.40;;;6.60;99.90;;;;;;5161379;28;20789;-53
2023/03/07 10:46:13;;;;;;;5.07;4.00;;;6.40;99.90;;;;;;5156888;28;20435;-52
2023/03/07 10:48:53;;;;;;;3.10;2.93;;;6.30;99.90;;;;;;5169270;28;20876;-53
2023/03/07 10:51:42;;;;;;;6.97;2.77;;;6.20;99.90;;;;;;5159776;28;20470;-54
2023/03/07 10:54:42;;;;;;;4.47;2.37;;;6.20;99.90;;;;;;5157910;28;20454;-53
2023/03/07 10:57:15;;;;;;;1.90;1.63;;;6.40;99.90;;;;;;5147769;28;20471;-52
2023/03/07 10:59:48;;;;;;;1.40;1.30;;;6.30;99.90;;;;;;5170063;28;20462;-54
2023/03/07 11:02:26;;;;;;;12.97;1.80;;;6.20;99.90;;;;;;5161565;28;20502;-52
2023/03/07 11:04:58;;;;;;;4.93;2.43;;;6.30;99.90;;;;;;5172844;28;20469;-53
2023/03/07 11:07:31;;;;;;;2.97;2.10;;;6.00;99.90;;;;;;5160113;28;20959;-52
2023/03/07 11:10:23;;;;;;;2.60;2.40;;;6.00;99.90;;;;;;5157776;28;20955;-52
2023/03/07 11:12:55;;;;;;;3.67;3.37;;;5.90;99.90;;;;;;5153015;28;20675;-53
2023/03/07 11:15:26;;;;;;;4.30;2.87;;;6.00;99.90;;;;;;5154944;28;20430;-52
2023/03/07 11:17:57;;;;;;;3.50;3.03;;;6.00;99.90;;;;;;5163996;28;20554;-53
2023/03/07 11:20:47;;;;;;;3.07;2.87;;;6.20;99.90;;;;;;5144673;28;20750;-53
2023/03/07 11:23:30;;;;;;;3.03;2.73;;;6.30;99.90;;;;;;5175770;28;20560;-53
2023/03/07 11:26:21;;;;;;;2.73;2.50;;;6.20;99.90;;;;;;5160160;28;20887;-59
2023/03/07 11:29:10;;;;;;;8.83;3.23;;;6.20;99.90;;;;;;5162166;28;20467;-52
2023/03/07 11:31:51;;;;;;;2.20;1.90;;;6.30;99.90;;;;;;5162508;28;20490;-53
2023/03/07 11:34:34;;;;;;;6.77;3.10;;;6.10;99.90;;;;;;5162008;28;20455;-50
2023/03/07 11:37:28;;;;;;;1.97;1.83;;;6.30;99.90;;;;;;5161905;28;20613;-52
2023/03/07 11:40:33;;;;;;;2.53;2.33;;;6.20;99.90;;;;;;5159455;28;20463;-54
2023/03/07 11:43:18;;;;;;;4.47;3.47;;;6.20;99.90;;;;;;5158173;28;20539;-51
2023/03/07 11:46:18;;;;;;;2.90;2.73;;;6.20;99.90;;;;;;5160649;28;20447;-54
2023/03/07 11:49:13;;;;;;;12.70;2.90;;;6.20;99.90;;;;;;5161426;28;20582;-52
2023/03/07 11:52:18;;;;;;;3.13;2.13;;;6.10;99.90;;;;;;5160641;28;20432;-52
2023/03/07 11:55:18;;;;;;;2.47;2.10;;;6.10;99.90;;;;;;5161084;28;20478;-53
2023/03/07 11:58:15;;;;;;;2.30;1.60;;;6.00;99.90;;;;;;5175830;28;20480;-53
2023/03/07 12:00:57;;;;;;;3.27;2.00;;;5.80;99.90;;;;;;5158984;28;20449;-53
2023/03/07 12:03:46;;;;;;;5.70;1.90;;;5.60;99.90;;;;;;5160547;28;20497;-52
2023/03/07 12:06:21;;;;;;;6.10;2.67;;;5.60;99.90;;;;;;5161139;28;20467;-52
2023/03/07 12:09:06;;;;;;;1.87;1.77;;;5.50;99.90;;;;;;5161371;28;20435;-51
2023/03/07 12:12:15;;;;;;;1.00;1.00;;;5.40;99.90;;;;;;5159883;28;20427;-53
2023/03/07 12:14:55;;;;;;;6.30;2.10;;;5.30;99.90;;;;;;5161089;28;21074;-53
2023/03/07 12:17:31;;;;;;;1.40;1.30;;;5.10;99.90;;;;;;5161144;28;20459;-53
2023/03/07 12:20:49;;;;;;;1.73;1.63;;;5.00;99.90;;;;;;5159241;28;20442;-52
2023/03/07 12:23:35;;;;;;;1.73;1.63;;;4.80;99.90;;;;;;5139362;28;20482;-52
2023/03/07 12:26:15;;;;;;;2.23;1.50;;;4.80;99.90;;;;;;5139646;28;20602;-54
2023/03/07 12:29:02;;;;;;;1.70;1.57;;;4.50;99.90;;;;;;5148350;28;21052;-53
2023/03/07 12:31:36;;;;;;;1.87;1.77;;;4.50;99.90;;;;;;5160123;28;20437;-53
2023/03/07 12:34:28;;;;;;;8.10;2.67;;;4.30;99.90;;;;;;5179530;28;20536;-54
2023/03/07 12:37:08;;;;;;;3.30;3.00;;;4.30;99.90;;;;;;5164122;28;20555;-52
2023/03/07 12:39:39;;;;;;;1.80;1.70;;;4.30;99.90;;;;;;5164059;28;21451;-53
2023/03/07 12:42:16;;;;;;;6.10;2.30;;;4.30;99.90;;;;;;5179270;28;20447;-54
2023/03/07 12:45:02;;;;;;;4.00;1.93;;;4.20;99.90;;;;;;5165696;28;20672;-53
2023/03/07 12:47:58;;;;;;;2.77;1.93;;;4.10;99.90;;;;;;5166214;28;20918;-53
2023/03/07 12:50:47;;;;;;;1.07;0.93;;;4.00;99.90;;;;;;5165513;28;20493;-53
2023/03/07 12:53:36;;;;;;;1.13;0.97;;;3.80;99.90;;;;;;5162950;28;20471;-55
2023/03/07 12:56:14;;;;;;;1.10;1.00;;;3.80;99.90;;;;;;5149423;28;20441;-53
2023/03/07 12:59:26;;;;;;;1.43;1.43;;;3.90;99.90;;;;;;5167773;28;20491;-53
2023/03/07 13:01:59;;;;;;;1.50;1.50;;;4.00;99.90;;;;;;5111493;28;20445;-53
2023/03/07 13:04:37;;;;;;;1.93;1.50;;;3.90;99.90;;;;;;5165102;28;20483;-54
2023/03/07 13:07:23;;;;;;;1.40;1.30;;;3.80;99.90;;;;;;5161762;28;20893;-54
2023/03/07 13:09:57;;;;;;;3.93;2.67;;;3.80;99.90;;;;;;5163651;28;20879;-54
2023/03/07 13:12:30;;;;;;;4.63;1.97;;;3.70;99.90;;;;;;5162923;28;20433;-53
2023/03/07 13:15:06;;;;;;;8.80;3.73;;;3.70;99.90;;;;;;5158848;28;20510;-53
2023/03/07 13:17:37;;;;;;;3.77;2.43;;;3.60;99.90;;;;;;5176363;28;20498;-54
2023/03/07 13:20:26;;;;;;;4.03;2.47;;;3.40;99.90;;;;;;5162671;28;20436;-53
2023/03/07 13:22:59;;;;;;;5.87;2.73;;;3.30;99.90;;;;;;5160686;28;20216;-55